Time;durP1;ratioP1;P1;durP2;ratioP2;P2;SDS_P1;SDS_P2;PMS_P1;PMS_P2;Temp;Humidity;BMP_temperature;BMP_pressure;BME280_temperature;BME280_humidity;BME280_pressure;Samples;Min_cycle;Max_cycle;Signal;HPM_P1;HPM_P2
2021/01/08 00:00:59;;;;;;;9.63;2.13;;;19.70;95.50;;;;;;4996218;28;20640;-78
2021/01/08 00:03:27;;;;;;;12.80;2.27;;;19.70;95.20;;;;;;5000037;28;20221;-80
2021/01/08 00:05:54;;;;;;;14.63;2.30;;;19.90;95.20;;;;;;4997414;28;20224;-78
2021/01/08 00:08:21;;;;;;;9.03;1.57;;;20.00;94.20;;;;;;4984656;28;20200;-78
2021/01/08 00:10:49;;;;;;;12.93;3.50;;;19.90;93.00;;;;;;4999235;28;20209;-78
2021/01/08 00:13:16;;;;;;;10.40;3.10;;;20.00;93.50;;;;;;4983069;28;20276;-78
2021/01/08 00:15:44;;;;;;;14.17;2.13;;;20.20;91.90;;;;;;4991309;28;20624;-77
2021/01/08 00:18:11;;;;;;;11.43;1.77;;;20.40;91.40;;;;;;4999346;28;20190;-77
2021/01/08 00:20:39;;;;;;;10.93;1.67;;;20.60;91.50;;;;;;4999133;28;20178;-77
2021/01/08 00:23:06;;;;;;;11.67;2.33;;;20.70;90.90;;;;;;4992851;28;20190;-78
2021/01/08 00:25:33;;;;;;;15.30;4.27;;;20.60;91.60;;;;;;4996334;28;20699;-77
2021/01/08 00:28:01;;;;;;;16.30;2.57;;;20.40;92.20;;;;;;4998842;28;20260;-76
2021/01/08 00:30:28;;;;;;;16.17;3.80;;;20.30;92.80;;;;;;4986983;28;20751;-77
2021/01/08 00:32:55;;;;;;;14.47;6.07;;;20.20;92.30;;;;;;4986023;28;20210;-78
2021/01/08 00:35:23;;;;;;;19.70;7.00;;;20.40;92.20;;;;;;4986704;28;20181;-77
2021/01/08 00:37:53;;;;;;;11.87;3.07;;;20.50;91.70;;;;;;4997482;28;20670;-78
2021/01/08 00:40:20;;;;;;;9.33;1.73;;;20.70;91.70;;;;;;4997710;28;20182;-76
2021/01/08 00:42:48;;;;;;;16.33;2.17;;;20.90;90.20;;;;;;4997038;28;20187;-78
2021/01/08 00:45:15;;;;;;;11.83;2.17;;;20.90;90.10;;;;;;4986127;28;20698;-76
2021/01/08 00:47:42;;;;;;;11.87;2.20;;;21.00;85.90;;;;;;4999433;28;20548;-77
2021/01/08 00:50:10;;;;;;;16.20;2.50;;;21.30;87.40;;;;;;4993962;28;20181;-77
2021/01/08 00:52:38;;;;;;;14.93;2.53;;;21.40;86.60;;;;;;4985212;28;20214;-76
2021/01/08 00:55:05;;;;;;;14.37;2.30;;;21.50;83.80;;;;;;4996365;28;20225;-77
2021/01/08 00:57:33;;;;;;;7.47;1.80;;;21.70;81.80;;;;;;5008263;28;20188;-77
2021/01/08 01:00:00;;;;;;;10.48;2.00;;;21.90;80.40;;;;;;4999424;28;20420;-77
2021/01/08 01:02:27;;;;;;;12.63;2.10;;;21.90;78.30;;;;;;4988362;28;20190;-78
2021/01/08 01:04:55;;;;;;;12.47;1.50;;;21.90;77.30;;;;;;4987156;28;20222;-77
2021/01/08 01:07:22;;;;;;;8.87;2.17;;;21.80;76.70;;;;;;4983128;28;20270;-77
2021/01/08 01:09:49;;;;;;;6.40;1.60;;;21.90;78.50;;;;;;4985936;28;20196;-76
2021/01/08 01:12:17;;;;;;;9.53;1.50;;;22.00;76.60;;;;;;4994012;28;20586;-76
2021/01/08 01:14:47;;;;;;;6.80;1.63;;;22.10;75.80;;;;;;4982120;28;20661;-78
2021/01/08 01:17:14;;;;;;;8.90;2.20;;;22.20;75.10;;;;;;4996581;28;20178;-76
2021/01/08 01:19:41;;;;;;;7.27;1.93;;;22.30;75.50;;;;;;4990055;28;20194;-77
2021/01/08 01:22:09;;;;;;;13.43;3.03;;;22.30;75.90;;;;;;4990999;28;20186;-77
2021/01/08 01:24:36;;;;;;;8.17;1.60;;;22.20;77.90;;;;;;4984676;28;20660;-78
2021/01/08 01:27:03;;;;;;;12.87;2.27;;;21.80;81.30;;;;;;4986808;28;20175;-79
2021/01/08 01:29:31;;;;;;;16.47;2.40;;;21.40;85.30;;;;;;4983584;28;20265;-77
2021/01/08 01:31:58;;;;;;;8.73;2.13;;;21.20;85.20;;;;;;4988247;28;20211;-77
2021/01/08 01:34:25;;;;;;;10.40;1.90;;;21.10;82.70;;;;;;4978993;28;20182;-77
2021/01/08 01:36:53;;;;;;;16.20;3.17;;;21.20;80.80;;;;;;4986607;28;20182;-76
2021/01/08 01:39:20;;;;;;;14.40;2.50;;;21.30;80.60;;;;;;4993654;28;20656;-76
2021/01/08 01:41:47;;;;;;;9.43;2.13;;;21.50;79.00;;;;;;4987066;28;20197;-78
2021/01/08 01:44:14;;;;;;;6.40;1.47;;;21.80;78.50;;;;;;4985516;28;20181;-77
2021/01/08 01:46:42;;;;;;;12.80;5.17;;;21.90;75.80;;;;;;4990207;28;20558;-76
2021/01/08 01:49:09;;;;;;;9.87;3.53;;;22.10;75.60;;;;;;4985713;28;20182;-78
2021/01/08 01:51:37;;;;;;;7.33;1.83;;;22.20;73.60;;;;;;4981834;28;20207;-78
2021/01/08 01:54:04;;;;;;;9.70;2.00;;;22.40;73.70;;;;;;4985882;28;20218;-77
2021/01/08 01:56:32;;;;;;;12.03;1.73;;;22.40;73.50;;;;;;4990715;28;20186;-78
2021/01/08 01:58:59;;;;;;;10.40;1.70;;;22.30;70.30;;;;;;4990061;28;20182;-77
2021/01/08 02:01:27;;;;;;;9.87;1.93;;;22.30;71.30;;;;;;4990227;28;20182;-76
2021/01/08 02:03:59;;;;;;;9.77;2.17;;;22.70;71.50;;;;;;4991792;28;20687;-78
2021/01/08 02:06:37;;;;;;;7.23;1.80;;;23.00;71.90;;;;;;4993631;28;20201;-78
2021/01/08 02:09:13;;;;;;;10.40;1.73;;;22.90;72.20;;;;;;4989528;28;20585;-76
2021/01/08 02:11:46;;;;;;;6.60;2.03;;;23.00;72.80;;;;;;4982415;28;20224;-76
2021/01/08 02:14:18;;;;;;;9.27;2.03;;;23.20;70.90;;;;;;4981857;28;20193;-81
2021/01/08 02:16:47;;;;;;;14.30;1.90;;;23.00;70.20;;;;;;4988917;28;20645;-77
2021/01/08 02:19:41;;;;;;;11.27;1.93;;;22.90;69.50;;;;;;4980846;28;20182;-80
2021/01/08 02:22:47;;;;;;;15.60;2.40;;;22.90;71.30;;;;;;4980559;28;20289;-77
2021/01/08 02:25:28;;;;;;;11.67;1.90;;;23.20;70.90;;;;;;4982948;28;20191;-76
2021/01/08 02:28:01;;;;;;;10.40;2.03;;;23.30;70.00;;;;;;4995710;28;20217;-80
2021/01/08 02:30:29;;;;;;;14.90;2.43;;;23.30;70.00;;;;;;4988568;28;20232;-78
2021/01/08 02:32:56;;;;;;;15.70;2.10;;;23.40;69.30;;;;;;4985150;28;20222;-76
2021/01/08 02:35:24;;;;;;;7.10;1.70;;;23.30;70.40;;;;;;4983451;28;20314;-76
2021/01/08 02:37:52;;;;;;;12.07;2.00;;;23.20;68.70;;;;;;4972818;28;20202;-77
2021/01/08 02:40:19;;;;;;;10.67;2.20;;;23.20;69.90;;;;;;4986130;28;20178;-77
2021/01/08 02:42:49;;;;;;;5.73;1.40;;;23.50;69.70;;;;;;4993468;28;20885;-77
2021/01/08 02:45:17;;;;;;;8.37;1.67;;;23.60;69.10;;;;;;4991100;28;20178;-80
2021/01/08 02:47:44;;;;;;;6.00;1.70;;;23.80;68.30;;;;;;4986417;28;20289;-76
2021/01/08 02:50:14;;;;;;;10.30;1.90;;;23.90;68.50;;;;;;4983300;28;20193;-78
2021/01/08 02:52:46;;;;;;;10.37;2.17;;;23.50;68.70;;;;;;4984554;28;20296;-78
2021/01/08 02:55:17;;;;;;;9.07;2.23;;;23.30;69.80;;;;;;4987113;28;20190;-78
2021/01/08 02:57:45;;;;;;;10.87;1.83;;;23.00;71.40;;;;;;4987314;28;20192;-76
2021/01/08 03:00:15;;;;;;;13.03;2.10;;;22.90;72.30;;;;;;4985166;28;20206;-76
2021/01/08 03:02:42;;;;;;;14.60;2.57;;;22.90;72.60;;;;;;4983836;28;20224;-80
2021/01/08 03:05:14;;;;;;;8.87;2.13;;;22.80;73.60;;;;;;4987958;28;20775;-76
2021/01/08 03:07:42;;;;;;;9.73;1.70;;;22.70;73.40;;;;;;4987134;28;20617;-75
2021/01/08 03:10:11;;;;;;;7.90;1.60;;;22.50;74.10;;;;;;4983970;28;20173;-76
2021/01/08 03:12:39;;;;;;;10.20;1.90;;;22.50;74.30;;;;;;4985601;28;20615;-76
2021/01/08 03:15:11;;;;;;;13.23;2.13;;;22.70;74.90;;;;;;4984681;28;20178;-77
2021/01/08 03:17:38;;;;;;;7.90;1.93;;;23.00;74.50;;;;;;4977717;28;20187;-77
2021/01/08 03:20:06;;;;;;;8.93;1.50;;;22.90;74.40;;;;;;4982952;28;20683;-78
2021/01/08 03:22:33;;;;;;;10.30;1.97;;;23.20;75.20;;;;;;4981998;28;20262;-77
2021/01/08 03:25:01;;;;;;;11.57;1.93;;;23.40;73.90;;;;;;4985882;28;20600;-80
2021/01/08 03:27:28;;;;;;;12.83;1.67;;;23.10;74.50;;;;;;4979902;28;20185;-77
2021/01/08 03:29:55;;;;;;;11.10;1.87;;;22.90;74.70;;;;;;4980908;28;20186;-78
2021/01/08 03:32:23;;;;;;;11.87;1.80;;;22.80;75.30;;;;;;4974670;28;20198;-76
2021/01/08 03:34:51;;;;;;;9.37;1.70;;;22.80;75.90;;;;;;4977348;28;20174;-78
2021/01/08 03:37:18;;;;;;;10.77;1.77;;;22.80;76.20;;;;;;4991603;28;20246;-75
2021/01/08 03:39:45;;;;;;;9.17;1.67;;;22.80;74.60;;;;;;4991545;28;20190;-77
2021/01/08 03:42:13;;;;;;;6.20;2.10;;;22.80;74.00;;;;;;4989421;28;20229;-78
2021/01/08 03:44:42;;;;;;;8.13;1.70;;;22.80;74.40;;;;;;4993229;28;20190;-77
2021/01/08 03:47:10;;;;;;;9.93;1.43;;;22.90;73.90;;;;;;4992680;28;20171;-80
2021/01/08 03:49:40;;;;;;;8.73;1.80;;;23.00;74.00;;;;;;4984792;28;20181;-78
2021/01/08 03:52:09;;;;;;;9.83;2.50;;;23.10;73.90;;;;;;4979028;28;20327;-79
2021/01/08 03:54:43;;;;;;;10.83;1.87;;;22.80;73.20;;;;;;4989477;28;20186;-77
2021/01/08 03:57:10;;;;;;;5.77;1.40;;;22.90;72.60;;;;;;4986788;28;20552;-76
2021/01/08 03:59:37;;;;;;;5.63;1.60;;;23.20;72.30;;;;;;4982670;28;20658;-76
2021/01/08 04:02:08;;;;;;;12.13;1.80;;;23.40;71.20;;;;;;4980608;28;20193;-76
2021/01/08 04:04:35;;;;;;;8.27;1.33;;;23.20;71.20;;;;;;4986065;28;20221;-77
2021/01/08 04:07:03;;;;;;;8.93;1.60;;;23.10;72.10;;;;;;4991139;28;20186;-76
2021/01/08 04:09:30;;;;;;;10.17;1.60;;;23.00;71.50;;;;;;4990807;28;20664;-77
2021/01/08 04:11:58;;;;;;;5.60;1.50;;;22.90;71.10;;;;;;4988601;28;20209;-76
2021/01/08 04:14:25;;;;;;;7.60;1.40;;;23.00;72.40;;;;;;4985512;28;20182;-78
2021/01/08 04:16:54;;;;;;;5.70;1.47;;;23.00;72.30;;;;;;4987810;28;20570;-77
2021/01/08 04:19:23;;;;;;;8.10;1.30;;;23.00;72.50;;;;;;4983943;28;20178;-78
2021/01/08 04:21:50;;;;;;;5.90;1.30;;;22.80;73.50;;;;;;4979788;28;20305;-79
2021/01/08 04:24:18;;;;;;;7.57;1.10;;;22.80;74.20;;;;;;4984882;28;20213;-78
2021/01/08 04:26:45;;;;;;;8.53;1.37;;;22.90;73.50;;;;;;4986885;28;20187;-77
2021/01/08 04:29:12;;;;;;;7.27;1.60;;;23.10;73.80;;;;;;4987836;28;20213;-77
2021/01/08 04:31:41;;;;;;;6.90;1.40;;;23.00;73.80;;;;;;4983359;28;20442;-75
2021/01/08 04:34:09;;;;;;;10.50;1.80;;;22.80;74.80;;;;;;4987523;28;20700;-79
2021/01/08 04:36:36;;;;;;;10.63;1.47;;;22.70;74.40;;;;;;4992755;28;20183;-76
2021/01/08 04:39:04;;;;;;;6.23;1.67;;;22.70;74.00;;;;;;4986709;28;20190;-78
2021/01/08 04:41:32;;;;;;;8.93;1.80;;;22.70;73.20;;;;;;4984456;28;20273;-78
2021/01/08 04:44:01;;;;;;;12.93;8.87;;;23.00;72.10;;;;;;4988513;28;20290;-81
2021/01/08 04:46:34;;;;;;;9.30;3.07;;;23.30;70.60;;;;;;4988809;28;20529;-79
2021/01/08 04:49:08;;;;;;;4.57;0.93;;;23.70;70.60;;;;;;4989396;28;20178;-77
2021/01/08 04:51:38;;;;;;;3.80;1.07;;;24.50;68.70;;;;;;4982280;28;20213;-78
2021/01/08 04:54:07;;;;;;;5.70;1.23;;;24.40;68.00;;;;;;4987407;28;20548;-77
2021/01/08 04:56:56;;;;;;;7.90;1.30;;;24.10;69.20;;;;;;4980508;28;20583;-81
2021/01/08 04:59:25;;;;;;;11.53;1.00;;;24.40;67.10;;;;;;4978508;28;20221;-80
2021/01/08 05:01:53;;;;;;;4.23;1.20;;;24.70;66.70;;;;;;4978070;28;20190;-78
2021/01/08 05:04:22;;;;;;;3.57;1.23;;;24.40;67.10;;;;;;4995402;28;20232;-77
2021/01/08 05:06:49;;;;;;;6.87;1.37;;;24.40;68.20;;;;;;4996436;28;20235;-78
2021/01/08 05:09:17;;;;;;;3.70;1.00;;;24.60;67.90;;;;;;4995985;28;20257;-78
2021/01/08 05:11:47;;;;;;;6.03;1.17;;;24.60;67.40;;;;;;4996042;28;20296;-78
2021/01/08 05:14:18;;;;;;;6.17;1.57;;;24.70;66.40;;;;;;4985219;28;20205;-78
2021/01/08 05:16:46;;;;;;;4.67;1.00;;;24.80;66.80;;;;;;4995722;28;20190;-77
2021/01/08 05:19:14;;;;;;;9.47;1.30;;;25.50;66.10;;;;;;4996075;28;20610;-77
2021/01/08 05:21:45;;;;;;;6.43;1.43;;;26.00;65.80;;;;;;4995978;28;20174;-83
2021/01/08 05:24:12;;;;;;;2.90;0.90;;;26.90;63.10;;;;;;4995147;28;20182;-82
2021/01/08 05:26:41;;;;;;;9.37;1.63;;;27.50;59.30;;;;;;5000986;28;20264;-80
2021/01/08 05:29:08;;;;;;;5.87;1.20;;;27.60;59.60;;;;;;4996457;28;20194;-80
2021/01/08 05:31:36;;;;;;;5.93;1.30;;;26.90;61.40;;;;;;4995813;28;20220;-78
2021/01/08 05:34:04;;;;;;;5.83;0.90;;;26.10;62.60;;;;;;4995691;28;20189;-77
2021/01/08 05:36:32;;;;;;;3.10;0.90;;;25.60;63.50;;;;;;4993377;28;20306;-81
2021/01/08 05:39:00;;;;;;;5.10;0.97;;;25.10;64.50;;;;;;4993817;28;20186;-78
2021/01/08 05:41:30;;;;;;;4.73;1.10;;;24.90;65.70;;;;;;4995290;28;20178;-78
2021/01/08 05:43:59;;;;;;;2.23;0.93;;;24.90;66.40;;;;;;4995737;28;20178;-76
2021/01/08 05:46:31;;;;;;;3.80;1.10;;;25.00;66.20;;;;;;4976440;28;20187;-79
2021/01/08 05:49:04;;;;;;;2.27;0.90;;;24.90;65.60;;;;;;4982627;28;20182;-78
2021/01/08 05:51:33;;;;;;;9.33;1.50;;;25.40;64.80;;;;;;4995413;28;20198;-80
2021/01/08 05:54:02;;;;;;;8.00;1.63;;;25.20;66.60;;;;;;4995592;28;20220;-79
2021/01/08 05:56:36;;;;;;;8.00;1.63;;;25.50;67.90;;;;;;4991575;28;20273;-79
2021/01/08 05:59:07;;;;;;;6.23;1.67;;;26.00;66.30;;;;;;4994503;28;20178;-81
2021/01/08 06:01:38;;;;;;;5.43;1.60;;;26.80;63.10;;;;;;4979963;28;20705;-82
2021/01/08 06:04:06;;;;;;;5.53;1.00;;;26.70;63.30;;;;;;4974211;28;20210;-80
2021/01/08 06:06:45;;;;;;;7.07;1.67;;;26.50;63.60;;;;;;4983011;28;20193;-81
2021/01/08 06:09:14;;;;;;;11.93;1.63;;;25.70;65.40;;;;;;4994579;28;20206;-83
2021/01/08 06:11:45;;;;;;;6.40;1.33;;;25.50;65.90;;;;;;4989037;28;20903;-79
2021/01/08 06:14:15;;;;;;;6.43;1.23;;;25.20;66.60;;;;;;4989887;28;20186;-79
2021/01/08 06:16:49;;;;;;;7.10;1.40;;;24.70;67.90;;;;;;4974308;28;20178;-81
2021/01/08 06:19:17;;;;;;;7.33;1.40;;;24.70;68.50;;;;;;4978552;28;20198;-79
2021/01/08 06:21:48;;;;;;;6.87;1.70;;;24.50;68.40;;;;;;4990125;28;20178;-78
2021/01/08 06:24:25;;;;;;;5.57;1.50;;;24.40;70.40;;;;;;4981604;28;20186;-78
2021/01/08 06:26:53;;;;;;;6.70;1.40;;;24.10;70.40;;;;;;4990344;28;20644;-80
2021/01/08 06:29:26;;;;;;;10.50;2.00;;;23.90;70.90;;;;;;4976544;28;20273;-78
2021/01/08 06:31:54;;;;;;;7.90;1.30;;;23.90;70.50;;;;;;4975262;28;20210;-77
2021/01/08 06:34:30;;;;;;;8.33;1.77;;;23.90;70.20;;;;;;4989935;28;20265;-77
2021/01/08 06:37:07;;;;;;;8.97;1.57;;;23.90;69.70;;;;;;4996113;28;20547;-82
2021/01/08 06:39:45;;;;;;;9.03;1.60;;;23.70;70.80;;;;;;4983625;28;20178;-78
2021/01/08 06:42:27;;;;;;;5.57;1.50;;;23.70;71.00;;;;;;4991333;28;20192;-79
2021/01/08 06:44:59;;;;;;;6.63;1.90;;;23.70;70.20;;;;;;4995187;28;20244;-78
2021/01/08 06:47:29;;;;;;;7.50;1.30;;;23.50;71.40;;;;;;4999723;28;20237;-78
2021/01/08 06:50:02;;;;;;;8.60;1.70;;;23.60;71.70;;;;;;4982524;28;20584;-79
2021/01/08 06:52:37;;;;;;;11.83;1.97;;;23.70;72.10;;;;;;4989394;28;20209;-78
2021/01/08 06:55:07;;;;;;;8.77;1.50;;;23.50;72.30;;;;;;4987123;28;20181;-79
2021/01/08 06:57:36;;;;;;;8.13;1.50;;;23.40;73.10;;;;;;4973027;28;20182;-78
2021/01/08 07:00:06;;;;;;;9.97;1.53;;;23.30;73.70;;;;;;4976759;28;20280;-75
2021/01/08 07:02:37;;;;;;;9.97;1.50;;;23.30;74.20;;;;;;4979420;28;20182;-78
2021/01/08 07:05:05;;;;;;;8.53;1.33;;;23.20;74.70;;;;;;4973655;28;20223;-77
2021/01/08 07:07:34;;;;;;;9.37;2.23;;;23.50;73.60;;;;;;4974229;28;20542;-78
2021/01/08 07:10:03;;;;;;;12.83;1.93;;;23.60;73.70;;;;;;4989477;28;20186;-78
2021/01/08 07:12:30;;;;;;;5.33;1.30;;;23.20;71.70;;;;;;4988879;28;20218;-77
2021/01/08 07:14:58;;;;;;;5.57;1.87;;;22.90;72.60;;;;;;4987302;28;20182;-78
2021/01/08 07:17:38;;;;;;;8.13;1.53;;;22.60;74.50;;;;;;4990595;28;20178;-83
2021/01/08 07:20:08;;;;;;;6.27;1.27;;;22.50;74.20;;;;;;4993648;28;20703;-79
2021/01/08 07:22:41;;;;;;;10.17;1.70;;;22.40;74.80;;;;;;4994930;28;20636;-78
2021/01/08 07:25:13;;;;;;;6.23;1.60;;;22.40;75.30;;;;;;4986636;28;20662;-78
2021/01/08 07:27:45;;;;;;;7.37;1.83;;;22.40;75.20;;;;;;4983546;28;20197;-78
2021/01/08 07:30:13;;;;;;;3.77;1.43;;;22.40;75.10;;;;;;4974820;28;20234;-79
2021/01/08 07:32:44;;;;;;;8.87;2.13;;;22.30;74.60;;;;;;4976259;28;20260;-76
2021/01/08 07:35:28;;;;;;;6.90;3.00;;;22.20;73.80;;;;;;4994417;28;20193;-76
2021/01/08 07:38:08;;;;;;;9.87;2.07;;;22.10;73.90;;;;;;4997102;28;20528;-76
2021/01/08 07:40:38;;;;;;;8.37;1.50;;;22.20;74.00;;;;;;4996913;28;20792;-75
2021/01/08 07:43:07;;;;;;;4.13;1.60;;;22.30;73.80;;;;;;4999046;28;20568;-74
2021/01/08 07:45:59;;;;;;;8.10;1.83;;;22.40;73.60;;;;;;4984444;28;20186;-77
2021/01/08 07:48:39;;;;;;;6.07;1.63;;;22.20;73.80;;;;;;4990742;28;20174;-75
2021/01/08 07:51:13;;;;;;;9.37;3.17;;;22.20;74.20;;;;;;4981365;28;20182;-76
2021/01/08 07:53:43;;;;;;;8.17;1.90;;;22.20;73.30;;;;;;4996395;28;20190;-74
2021/01/08 07:56:11;;;;;;;7.93;1.53;;;22.20;73.30;;;;;;4988022;28;20205;-78
2021/01/08 07:58:39;;;;;;;7.73;1.50;;;22.20;73.80;;;;;;4976021;28;20180;-77
2021/01/08 08:01:09;;;;;;;7.90;1.70;;;22.10;73.90;;;;;;4988947;28;20554;-76
2021/01/08 08:03:37;;;;;;;8.67;1.90;;;22.00;73.50;;;;;;4996409;28;20233;-75
2021/01/08 08:06:06;;;;;;;7.57;1.70;;;21.90;74.30;;;;;;4984702;28;20566;-77
2021/01/08 08:08:40;;;;;;;6.63;1.63;;;21.90;74.70;;;;;;4997318;28;20528;-77
2021/01/08 08:11:09;;;;;;;5.00;1.87;;;21.80;75.30;;;;;;4998278;28;20236;-76
2021/01/08 08:13:37;;;;;;;7.00;2.53;;;22.00;75.10;;;;;;4996666;28;20233;-76
2021/01/08 08:16:06;;;;;;;9.43;2.83;;;21.90;75.20;;;;;;4997809;28;20686;-75
2021/01/08 08:18:34;;;;;;;10.43;3.07;;;21.90;76.20;;;;;;5018241;28;20173;-77
2021/01/08 08:21:11;;;;;;;9.80;1.87;;;21.80;74.90;;;;;;4993109;28;20198;-75
2021/01/08 08:23:38;;;;;;;7.87;2.27;;;21.80;75.40;;;;;;4976796;28;20190;-74
2021/01/08 08:26:06;;;;;;;9.07;2.07;;;21.80;75.50;;;;;;4999550;28;20263;-75
2021/01/08 08:28:33;;;;;;;8.67;1.67;;;21.70;75.50;;;;;;4999673;28;20185;-76
2021/01/08 08:31:01;;;;;;;8.53;1.73;;;21.60;75.50;;;;;;4992788;28;20186;-75
2021/01/08 08:33:29;;;;;;;7.40;1.40;;;21.50;75.90;;;;;;4980871;28;20199;-75
2021/01/08 08:35:56;;;;;;;7.70;1.73;;;21.50;75.20;;;;;;4996286;28;20551;-76
2021/01/08 08:38:24;;;;;;;10.40;1.47;;;21.40;75.50;;;;;;4990733;28;20297;-77
2021/01/08 08:40:51;;;;;;;7.53;1.77;;;21.40;75.30;;;;;;4977316;28;20522;-78
2021/01/08 08:43:22;;;;;;;4.87;1.30;;;21.30;75.80;;;;;;4987385;28;20185;-76
2021/01/08 08:45:56;;;;;;;14.90;3.33;;;21.20;76.30;;;;;;4984846;28;20190;-75
2021/01/08 08:48:24;;;;;;;6.40;1.50;;;21.20;76.50;;;;;;4989166;28;20189;-74
2021/01/08 08:50:52;;;;;;;8.17;2.30;;;21.30;76.60;;;;;;4986085;28;20204;-74
2021/01/08 08:53:19;;;;;;;7.67;1.63;;;21.30;76.90;;;;;;4988656;28;20971;-77
2021/01/08 08:55:49;;;;;;;7.17;1.50;;;21.20;77.40;;;;;;4991178;28;20182;-74
2021/01/08 08:58:18;;;;;;;10.13;1.90;;;21.20;77.50;;;;;;4989277;28;20182;-78
2021/01/08 09:00:45;;;;;;;3.93;1.47;;;21.20;77.90;;;;;;4988212;28;20192;-78
2021/01/08 09:03:23;;;;;;;9.23;2.80;;;21.30;78.10;;;;;;4989256;28;20193;-74
2021/01/08 09:05:52;;;;;;;6.97;1.90;;;21.20;78.30;;;;;;4989818;28;20832;-75
2021/01/08 09:08:27;;;;;;;11.80;2.60;;;21.10;78.90;;;;;;4988962;28;20715;-74
2021/01/08 09:11:26;;;;;;;7.60;1.67;;;21.10;78.40;;;;;;4985488;28;20653;-76
2021/01/08 09:14:00;;;;;;;9.77;1.73;;;21.10;78.30;;;;;;4988554;28;20621;-76
2021/01/08 09:16:51;;;;;;;8.40;1.77;;;21.10;78.80;;;;;;4988881;28;20657;-75
2021/01/08 09:19:42;;;;;;;11.23;2.00;;;21.10;78.90;;;;;;4992379;28;20177;-75
2021/01/08 09:22:11;;;;;;;8.27;1.80;;;21.00;78.70;;;;;;4983909;28;20217;-75
2021/01/08 09:24:41;;;;;;;6.77;1.63;;;21.00;79.10;;;;;;4986797;28;20649;-74
2021/01/08 09:27:12;;;;;;;8.40;1.57;;;21.00;79.00;;;;;;4987917;28;20644;-73
2021/01/08 09:29:41;;;;;;;9.50;1.60;;;21.00;79.20;;;;;;4988447;28;20609;-75
2021/01/08 09:32:09;;;;;;;4.93;1.50;;;21.00;79.80;;;;;;4985447;28;20224;-74
2021/01/08 09:34:38;;;;;;;14.83;5.97;;;21.00;80.20;;;;;;4989804;28;20197;-75
2021/01/08 09:37:18;;;;;;;7.40;2.00;;;21.00;80.40;;;;;;4993020;28;20189;-74
2021/01/08 09:39:45;;;;;;;8.10;1.50;;;20.90;80.60;;;;;;4988625;28;20218;-76
2021/01/08 09:42:13;;;;;;;8.83;1.93;;;20.90;80.90;;;;;;4988459;28;20186;-75
2021/01/08 09:44:41;;;;;;;8.87;2.20;;;20.90;80.90;;;;;;4986764;28;20186;-75
2021/01/08 09:47:13;;;;;;;12.60;1.70;;;20.80;80.80;;;;;;4985839;28;20186;-76
2021/01/08 09:49:51;;;;;;;14.07;2.50;;;20.80;80.90;;;;;;4983814;28;20183;-74
2021/01/08 09:52:27;;;;;;;9.27;1.90;;;20.70;80.50;;;;;;4987503;28;20610;-76
2021/01/08 09:54:57;;;;;;;10.77;2.00;;;20.70;80.80;;;;;;4988873;28;20272;-75
2021/01/08 09:57:35;;;;;;;8.90;2.27;;;20.70;81.00;;;;;;4986483;28;20194;-76
2021/01/08 10:00:06;;;;;;;6.43;1.60;;;20.70;81.20;;;;;;4984630;28;20191;-73
2021/01/08 10:02:41;;;;;;;10.20;1.60;;;20.60;81.60;;;;;;4981182;28;20182;-76
2021/01/08 10:05:25;;;;;;;8.80;2.10;;;20.60;81.40;;;;;;4989859;28;20229;-74
2021/01/08 10:07:53;;;;;;;6.47;1.30;;;20.50;81.80;;;;;;4986995;28;20613;-74
2021/01/08 10:10:29;;;;;;;9.07;1.40;;;20.50;82.20;;;;;;4989482;28;20189;-75
2021/01/08 10:12:58;;;;;;;5.70;1.60;;;20.50;82.10;;;;;;4986612;28;20241;-75
2021/01/08 10:15:40;;;;;;;6.90;1.63;;;20.50;82.70;;;;;;4984808;28;20186;-76
2021/01/08 10:18:12;;;;;;;10.13;2.40;;;20.50;82.40;;;;;;4984343;28;20254;-74
2021/01/08 10:20:53;;;;;;;4.00;1.57;;;20.50;82.40;;;;;;4984098;28;20221;-76
2021/01/08 10:23:26;;;;;;;12.60;1.70;;;20.50;82.50;;;;;;4982715;28;20182;-76
2021/01/08 10:25:54;;;;;;;5.43;1.60;;;20.50;82.90;;;;;;4990910;28;20210;-75
2021/01/08 10:28:26;;;;;;;9.50;1.47;;;20.40;83.00;;;;;;4983838;28;20666;-74
2021/01/08 10:30:55;;;;;;;7.03;1.53;;;20.40;83.20;;;;;;4983186;28;20184;-74
2021/01/08 10:33:28;;;;;;;14.10;2.60;;;20.40;83.00;;;;;;4989065;28;20706;-76
2021/01/08 10:35:58;;;;;;;8.80;1.53;;;20.40;83.00;;;;;;4989992;28;20186;-75
2021/01/08 10:38:25;;;;;;;6.90;2.10;;;20.40;83.10;;;;;;4982488;28;20274;-77
2021/01/08 10:40:52;;;;;;;6.40;1.37;;;20.40;83.20;;;;;;4987410;28;20269;-75
2021/01/08 10:43:20;;;;;;;7.43;1.60;;;20.40;83.20;;;;;;4984013;28;20198;-73
2021/01/08 10:45:47;;;;;;;8.77;1.77;;;20.40;83.40;;;;;;4984848;28;20715;-74
2021/01/08 10:48:15;;;;;;;9.07;1.57;;;20.30;83.20;;;;;;4982899;28;20276;-73
2021/01/08 10:50:42;;;;;;;5.57;1.40;;;20.40;83.60;;;;;;4984729;28;20542;-74
2021/01/08 10:53:10;;;;;;;5.57;1.20;;;20.40;83.90;;;;;;4986911;28;20214;-74
2021/01/08 10:55:37;;;;;;;9.33;1.60;;;20.40;83.50;;;;;;4987586;28;20193;-74
2021/01/08 10:58:05;;;;;;;6.70;1.40;;;20.40;83.30;;;;;;4986910;28;20182;-75
2021/01/08 11:00:32;;;;;;;9.43;1.53;;;20.30;83.40;;;;;;4989934;28;20303;-75
2021/01/08 11:02:59;;;;;;;8.30;1.87;;;20.30;83.10;;;;;;4982982;28;20212;-76
2021/01/08 11:05:27;;;;;;;7.80;1.93;;;20.30;82.70;;;;;;4984100;28;20700;-75
2021/01/08 11:07:54;;;;;;;6.97;1.77;;;20.40;82.50;;;;;;4988060;28;20265;-77
2021/01/08 11:10:22;;;;;;;5.87;1.57;;;20.30;82.50;;;;;;4982346;28;20194;-75
2021/01/08 11:12:49;;;;;;;7.03;1.73;;;20.30;82.50;;;;;;4982830;28;20580;-76
2021/01/08 11:15:17;;;;;;;6.03;1.27;;;20.40;82.60;;;;;;4986187;28;20186;-75
2021/01/08 11:17:44;;;;;;;5.53;1.57;;;20.40;82.60;;;;;;4981001;28;20197;-77
2021/01/08 11:20:13;;;;;;;5.60;1.90;;;20.40;82.40;;;;;;4989770;28;20285;-77
2021/01/08 11:22:40;;;;;;;6.37;1.47;;;20.40;82.70;;;;;;4975113;28;20657;-77
2021/01/08 11:25:09;;;;;;;8.20;1.57;;;20.50;82.70;;;;;;4986529;28;20629;-78
2021/01/08 11:27:36;;;;;;;7.13;1.40;;;20.50;83.00;;;;;;4980091;28;20182;-76
2021/01/08 11:30:04;;;;;;;7.50;1.63;;;20.40;83.10;;;;;;4984677;28;20186;-78
2021/01/08 11:32:31;;;;;;;8.30;1.63;;;20.50;83.30;;;;;;4987965;28;20222;-78
2021/01/08 11:34:59;;;;;;;9.70;1.40;;;20.50;83.50;;;;;;4983052;28;20186;-74
2021/01/08 11:37:29;;;;;;;8.13;1.20;;;20.50;83.30;;;;;;4984034;28;20273;-74
2021/01/08 11:39:56;;;;;;;8.13;1.17;;;20.40;83.50;;;;;;4987194;28;20603;-76
2021/01/08 11:42:24;;;;;;;4.67;1.00;;;20.40;83.20;;;;;;4986750;28;20185;-75
2021/01/08 11:44:51;;;;;;;7.23;1.83;;;20.40;83.10;;;;;;4979079;28;20278;-74
2021/01/08 11:47:19;;;;;;;7.40;1.30;;;20.30;83.40;;;;;;4972493;28;20265;-75
2021/01/08 11:49:46;;;;;;;7.03;2.10;;;20.30;83.60;;;;;;4974227;28;20633;-77
2021/01/08 11:52:13;;;;;;;5.47;1.57;;;20.20;83.20;;;;;;4976955;28;20616;-76
2021/01/08 11:54:41;;;;;;;3.87;1.30;;;20.10;83.60;;;;;;4981726;28;20192;-75
2021/01/08 11:57:08;;;;;;;4.40;1.13;;;20.10;83.90;;;;;;4982796;28;20190;-77
2021/01/08 11:59:35;;;;;;;6.63;1.10;;;20.00;83.80;;;;;;4981304;28;20185;-75
2021/01/08 12:02:04;;;;;;;4.90;1.30;;;19.90;84.40;;;;;;4989244;28;20194;-76
2021/01/08 12:04:32;;;;;;;8.23;1.47;;;19.80;84.70;;;;;;4989200;28;20700;-74
2021/01/08 12:07:02;;;;;;;3.50;1.30;;;19.80;84.60;;;;;;4989515;28;20592;-73
2021/01/08 12:09:29;;;;;;;4.40;1.33;;;19.80;84.60;;;;;;4984338;28;20194;-73
2021/01/08 12:12:04;;;;;;;6.07;1.40;;;19.80;84.90;;;;;;4989791;28;20209;-74
2021/01/08 12:14:33;;;;;;;5.33;1.20;;;19.80;85.30;;;;;;4989996;28;20687;-73
2021/01/08 12:17:07;;;;;;;7.53;1.33;;;19.70;85.20;;;;;;4992077;28;20810;-74
2021/01/08 12:19:36;;;;;;;11.40;1.80;;;19.70;85.60;;;;;;4987840;28;20607;-75
2021/01/08 12:22:04;;;;;;;3.33;1.17;;;19.70;85.90;;;;;;4989754;28;20186;-74
2021/01/08 12:24:32;;;;;;;7.93;1.37;;;19.60;85.90;;;;;;4987619;28;20197;-76
2021/01/08 12:27:00;;;;;;;8.13;1.50;;;19.60;86.20;;;;;;4990250;28;20190;-74
2021/01/08 12:29:29;;;;;;;5.73;1.30;;;19.50;86.40;;;;;;4985733;28;20657;-76
2021/01/08 12:32:05;;;;;;;8.00;1.43;;;19.50;86.90;;;;;;4983421;28;20218;-76
2021/01/08 12:34:33;;;;;;;5.27;1.40;;;19.50;87.00;;;;;;4986779;28;20188;-74
2021/01/08 12:37:02;;;;;;;7.80;1.53;;;19.40;87.10;;;;;;4986394;28;20596;-74
2021/01/08 12:39:31;;;;;;;5.43;1.60;;;19.40;87.40;;;;;;4986164;28;20315;-74
2021/01/08 12:42:00;;;;;;;8.50;1.83;;;19.40;87.80;;;;;;4986652;28;20216;-75
2021/01/08 12:44:27;;;;;;;10.63;1.73;;;19.30;87.70;;;;;;4989216;28;20178;-76
2021/01/08 12:46:59;;;;;;;15.43;6.03;;;19.30;87.90;;;;;;4988046;28;20186;-74
2021/01/08 12:49:27;;;;;;;12.57;4.00;;;19.30;88.40;;;;;;4990072;28;20186;-74
2021/01/08 12:51:55;;;;;;;7.77;3.07;;;19.30;88.40;;;;;;4988904;28;20284;-74
2021/01/08 12:54:22;;;;;;;10.63;2.37;;;19.30;88.80;;;;;;4983177;28;20236;-77
2021/01/08 12:56:50;;;;;;;8.10;1.90;;;19.20;89.10;;;;;;4988077;28;20525;-76